createdAt,value
2023-05-10T00:00:28.549Z,977.91
2023-05-10T00:01:28.527Z,977.97
2023-05-10T00:02:28.584Z,977.96
2023-05-10T00:03:28.633Z,978.01
2023-05-10T00:04:28.504Z,977.98
2023-05-10T00:05:28.487Z,977.95
2023-05-10T00:06:28.488Z,977.93
2023-05-10T00:07:28.471Z,977.93
2023-05-10T00:08:28.474Z,977.95
2023-05-10T00:09:28.451Z,978.06
2023-05-10T00:10:28.439Z,977.98
2023-05-10T00:11:28.430Z,977.95
2023-05-10T00:12:28.417Z,978.03
2023-05-10T00:13:28.441Z,978.01
2023-05-10T00:14:28.415Z,978.04
2023-05-10T00:15:28.384Z,978.04
2023-05-10T00:16:28.401Z,978.01
2023-05-10T00:17:28.378Z,978.01
2023-05-10T00:18:28.345Z,978.01
2023-05-10T00:19:28.354Z,977.99
2023-05-10T00:20:28.331Z,977.99
2023-05-10T00:21:28.329Z,978.02
2023-05-10T00:22:28.312Z,977.94
2023-05-10T00:23:28.291Z,977.95
2023-05-10T00:24:28.309Z,977.95
2023-05-10T00:25:28.275Z,977.98
2023-05-10T00:26:28.261Z,978.02
2023-05-10T00:27:28.243Z,977.94
2023-05-10T00:28:28.241Z,978.03
2023-05-10T00:29:28.245Z,977.89
2023-05-10T00:30:28.228Z,977.96
2023-05-10T00:31:28.212Z,977.90
2023-05-10T00:32:28.232Z,977.95
2023-05-10T00:33:28.188Z,977.94
2023-05-10T00:34:28.228Z,977.91
2023-05-10T00:35:28.174Z,978.08
2023-05-10T00:36:28.158Z,977.92
2023-05-10T00:37:28.142Z,977.94
2023-05-10T00:38:28.139Z,978.06
2023-05-10T00:39:28.119Z,978.04
2023-05-10T00:40:28.130Z,978.02
2023-05-10T00:41:28.098Z,978.03
2023-05-10T00:42:28.119Z,978.01
2023-05-10T00:43:28.092Z,978.00
2023-05-10T00:44:28.078Z,978.06
2023-05-10T00:45:28.069Z,978.09
2023-05-10T00:46:28.190Z,978.05
2023-05-10T00:47:28.083Z,978.03
2023-05-10T00:48:28.030Z,978.03
2023-05-10T00:49:28.025Z,978.15
2023-05-10T00:50:28.006Z,978.10
2023-05-10T00:51:27.988Z,978.18
2023-05-10T00:52:28.003Z,978.21
2023-05-10T00:53:27.966Z,978.18
2023-05-10T00:54:27.973Z,978.16
2023-05-10T00:55:27.966Z,978.19
2023-05-10T00:56:27.942Z,978.18
2023-05-10T00:57:27.921Z,978.20
2023-05-10T00:58:27.926Z,978.24
2023-05-10T00:59:27.904Z,978.26
2023-05-10T01:00:27.913Z,978.22
2023-05-10T01:01:27.966Z,978.25
2023-05-10T01:02:27.953Z,978.19
2023-05-10T01:03:27.906Z,978.29
2023-05-10T01:04:27.885Z,978.25
2023-05-10T01:05:27.840Z,978.24
2023-05-10T01:06:27.831Z,978.23
2023-05-10T01:07:27.817Z,978.30
2023-05-10T01:08:27.832Z,978.30
2023-05-10T01:09:27.803Z,978.28
2023-05-10T01:10:27.790Z,978.38
2023-05-10T01:11:27.781Z,978.31
2023-05-10T01:12:27.775Z,978.33
2023-05-10T01:13:27.882Z,978.31
2023-05-10T01:14:27.745Z,978.42
2023-05-10T01:15:27.751Z,978.33
2023-05-10T01:16:27.799Z,978.24
2023-05-10T01:17:27.793Z,978.28
2023-05-10T01:18:27.707Z,978.15
2023-05-10T01:19:27.712Z,978.32
2023-05-10T01:20:27.681Z,978.29
2023-05-10T01:21:27.682Z,978.22
2023-05-10T01:22:27.756Z,978.21
2023-05-10T01:23:27.649Z,978.35
2023-05-10T01:24:27.639Z,978.35
2023-05-10T01:25:27.619Z,978.35
2023-05-10T01:26:27.627Z,978.39
2023-05-10T01:27:27.597Z,978.35
2023-05-10T01:28:27.594Z,978.40
2023-05-10T01:29:27.579Z,978.29
2023-05-10T01:30:27.802Z,978.37
2023-05-10T01:31:27.601Z,978.25
2023-05-10T01:32:27.633Z,978.30
2023-05-10T01:33:27.533Z,978.39
2023-05-10T01:34:27.542Z,978.35
2023-05-10T01:35:27.515Z,978.43
2023-05-10T01:36:27.507Z,978.43
2023-05-10T01:37:27.485Z,978.39
2023-05-10T01:38:27.510Z,978.42
2023-05-10T01:39:27.468Z,978.44
2023-05-10T01:40:27.469Z,978.42
2023-05-10T01:41:27.449Z,978.47
2023-05-10T01:42:27.444Z,978.48
2023-05-10T01:43:27.421Z,978.48
2023-05-10T01:44:27.433Z,978.47
2023-05-10T01:45:27.406Z,978.42
2023-05-10T01:46:27.394Z,978.48
2023-05-10T01:47:27.392Z,978.51
2023-05-10T01:48:27.382Z,978.52
2023-05-10T01:49:27.372Z,978.50
2023-05-10T01:50:27.347Z,978.55
2023-05-10T01:51:27.333Z,978.53
2023-05-10T01:52:27.359Z,978.56
2023-05-10T01:53:27.329Z,978.52
2023-05-10T01:54:27.338Z,978.59
2023-05-10T01:55:27.293Z,978.57
2023-05-10T01:56:27.309Z,978.55
2023-05-10T01:57:27.293Z,978.61
2023-05-10T01:58:27.278Z,978.64
2023-05-10T01:59:27.296Z,978.61
2023-05-10T02:00:27.331Z,978.59
2023-05-10T02:01:27.264Z,978.61
2023-05-10T02:02:27.276Z,978.65
2023-05-10T02:03:27.265Z,978.61
2023-05-10T02:04:27.228Z,978.64
2023-05-10T02:05:27.204Z,978.64
2023-05-10T02:06:27.201Z,978.65
2023-05-10T02:07:27.195Z,978.65
2023-05-10T02:08:27.160Z,978.64
2023-05-10T02:09:27.165Z,978.67
2023-05-10T02:10:27.167Z,978.60
2023-05-10T02:11:27.130Z,978.65
2023-05-10T02:12:27.123Z,978.63
2023-05-10T02:13:27.300Z,978.59
2023-05-10T02:14:27.106Z,978.63
2023-05-10T02:15:27.113Z,978.68
2023-05-10T02:16:27.158Z,978.67
2023-05-10T02:17:27.133Z,978.64
2023-05-10T02:18:27.055Z,978.63
2023-05-10T02:19:27.036Z,978.60
2023-05-10T02:20:27.052Z,978.63
2023-05-10T02:21:27.051Z,978.65
2023-05-10T02:22:27.029Z,978.65
2023-05-10T02:23:27.016Z,978.63
2023-05-10T02:24:26.985Z,978.64
2023-05-10T02:25:27.001Z,978.67
2023-05-10T02:26:27.020Z,978.72
2023-05-10T02:27:26.972Z,978.72
2023-05-10T02:28:26.954Z,978.72
2023-05-10T02:29:26.933Z,978.72
2023-05-10T02:30:26.940Z,978.75
2023-05-10T02:31:26.961Z,978.74
2023-05-10T02:32:26.927Z,978.77
2023-05-10T02:33:26.913Z,978.72
2023-05-10T02:34:26.886Z,978.79
2023-05-10T02:35:26.893Z,978.84
2023-05-10T02:36:26.879Z,978.86
2023-05-10T02:37:26.871Z,978.91
2023-05-10T02:38:26.853Z,978.84
2023-05-10T02:39:26.853Z,978.84
2023-05-10T02:40:28.649Z,978.96
2023-05-10T02:41:26.816Z,978.95
2023-05-10T02:42:26.846Z,978.95
2023-05-10T02:43:26.792Z,978.98
2023-05-10T02:44:26.795Z,978.99
2023-05-10T02:45:26.768Z,979.03
2023-05-10T02:46:26.873Z,979.03
2023-05-10T02:47:26.774Z,978.99
2023-05-10T02:48:26.748Z,979.05
2023-05-10T02:49:26.746Z,978.97
2023-05-10T02:50:26.715Z,979.00
2023-05-10T02:51:26.718Z,978.99
2023-05-10T02:52:26.698Z,978.98
2023-05-10T02:53:26.704Z,978.91
2023-05-10T02:54:26.671Z,979.01
2023-05-10T02:55:26.657Z,978.95
2023-05-10T02:56:26.648Z,978.95
2023-05-10T02:57:26.639Z,978.92
2023-05-10T02:58:26.660Z,978.93
2023-05-10T02:59:26.612Z,979.01
2023-05-10T03:00:26.632Z,979.02
2023-05-10T03:01:26.654Z,978.98
2023-05-10T03:02:26.630Z,978.98
2023-05-10T03:03:26.610Z,978.94
2023-05-10T03:04:26.589Z,978.98
2023-05-10T03:05:26.553Z,978.92
2023-05-10T03:06:26.572Z,978.93
2023-05-10T03:07:26.546Z,978.98
2023-05-10T03:08:26.544Z,978.93
2023-05-10T03:09:26.518Z,979.00
2023-05-10T03:10:26.486Z,978.98
2023-05-10T03:11:26.498Z,979.02
2023-05-10T03:12:26.501Z,979.02
2023-05-10T03:13:26.551Z,979.10
2023-05-10T03:14:26.485Z,979.03
2023-05-10T03:15:26.436Z,979.01
2023-05-10T03:16:26.506Z,979.05
2023-05-10T03:17:26.510Z,979.04
2023-05-10T03:18:26.432Z,979.12
2023-05-10T03:19:26.403Z,979.11
2023-05-10T03:20:26.382Z,979.15
2023-05-10T03:21:26.388Z,979.06
2023-05-10T03:22:26.360Z,979.11
2023-05-10T03:23:26.363Z,979.10
2023-05-10T03:24:26.346Z,979.11
2023-05-10T03:25:26.357Z,979.10
2023-05-10T03:26:26.332Z,979.13
2023-05-10T03:27:26.339Z,979.12
2023-05-10T03:28:26.330Z,979.14
2023-05-10T03:29:26.305Z,979.11
2023-05-10T03:30:26.315Z,979.11
2023-05-10T03:31:26.392Z,979.10
2023-05-10T03:32:26.287Z,979.09
2023-05-10T03:33:26.270Z,979.16
2023-05-10T03:34:26.269Z,979.09
2023-05-10T03:35:26.955Z,979.08
2023-05-10T03:36:26.245Z,979.10
2023-05-10T03:37:27.190Z,979.01
2023-05-10T03:38:27.324Z,979.06
2023-05-10T03:39:26.887Z,979.12
2023-05-10T03:40:26.181Z,979.11
2023-05-10T03:41:26.896Z,979.08
2023-05-10T03:42:26.196Z,979.16
2023-05-10T03:43:26.861Z,979.14
2023-05-10T03:44:26.158Z,979.17
2023-05-10T03:45:26.202Z,979.22
2023-05-10T03:46:26.151Z,979.22
2023-05-10T03:47:26.853Z,979.19
2023-05-10T03:48:26.158Z,979.21
2023-05-10T03:49:26.803Z,979.19
2023-05-10T03:50:26.282Z,979.07
2023-05-10T03:51:26.797Z,979.13
2023-05-10T03:52:26.165Z,979.15
2023-05-10T03:53:26.165Z,979.22
2023-05-10T03:54:26.118Z,979.19
2023-05-10T03:55:26.207Z,979.19
2023-05-10T03:56:26.047Z,979.16
2023-05-10T03:57:26.128Z,979.16
2023-05-10T03:58:26.014Z,979.22
2023-05-10T03:59:27.646Z,979.13
2023-05-10T04:00:26.091Z,979.18
2023-05-10T04:01:26.033Z,979.20
2023-05-10T04:02:26.352Z,979.21
2023-05-10T04:03:26.871Z,979.23
2023-05-10T04:04:26.076Z,979.18
2023-05-10T04:05:26.636Z,979.28
2023-05-10T04:06:25.926Z,979.25
2023-05-10T04:07:25.946Z,979.17
2023-05-10T04:08:25.984Z,979.23
2023-05-10T04:09:26.071Z,979.21
2023-05-10T04:10:26.045Z,979.28
2023-05-10T04:11:25.941Z,979.19
2023-05-10T04:12:25.878Z,979.19
2023-05-10T04:13:26.039Z,979.24
2023-05-10T04:14:25.971Z,979.31
2023-05-10T04:15:25.908Z,979.30
2023-05-10T04:16:25.970Z,979.28
2023-05-10T04:17:26.532Z,979.26
2023-05-10T04:18:25.957Z,979.33
2023-05-10T04:19:25.950Z,979.32
2023-05-10T04:20:25.772Z,979.29
2023-05-10T04:21:25.826Z,979.31
2023-05-10T04:22:25.784Z,979.32
2023-05-10T04:23:25.874Z,979.31
2023-05-10T04:24:25.734Z,979.18
2023-05-10T04:25:26.419Z,979.18
2023-05-10T04:26:26.038Z,979.23
2023-05-10T04:27:25.815Z,979.23
2023-05-10T04:28:25.704Z,979.25
2023-05-10T04:29:25.845Z,979.28
2023-05-10T04:30:25.711Z,979.26
2023-05-10T04:31:25.746Z,979.25
2023-05-10T04:32:26.359Z,979.26
2023-05-10T04:33:25.623Z,979.24
2023-05-10T04:34:26.679Z,979.28
2023-05-10T04:35:25.641Z,979.33
2023-05-10T04:36:25.604Z,979.33
2023-05-10T04:37:25.572Z,979.33
2023-05-10T04:38:25.560Z,979.31
2023-05-10T04:39:25.588Z,979.40
2023-05-10T04:40:25.531Z,979.40
2023-05-10T04:41:25.530Z,979.41
2023-05-10T04:42:25.490Z,979.30
2023-05-10T04:43:25.505Z,979.31
2023-05-10T04:44:25.471Z,979.33
2023-05-10T04:45:25.523Z,979.41
2023-05-10T04:46:25.492Z,979.42
2023-05-10T04:47:25.472Z,979.39
2023-05-10T04:48:25.436Z,979.42
2023-05-10T04:49:25.439Z,979.45
2023-05-10T04:50:25.424Z,979.43
2023-05-10T04:51:25.430Z,979.43
2023-05-10T04:52:25.440Z,979.47
2023-05-10T04:53:25.401Z,979.44
2023-05-10T04:54:25.377Z,979.47
2023-05-10T04:55:25.355Z,979.52
2023-05-10T04:56:25.354Z,979.46
2023-05-10T04:57:25.362Z,979.48
2023-05-10T04:58:25.352Z,979.51
2023-05-10T04:59:25.520Z,979.52
2023-05-10T05:00:25.320Z,979.43
2023-05-10T05:01:25.334Z,979.50
2023-05-10T05:02:25.356Z,979.46
2023-05-10T05:03:25.389Z,979.46
2023-05-10T05:04:25.271Z,979.52
2023-05-10T05:05:25.248Z,979.54
2023-05-10T05:06:25.242Z,979.47
2023-05-10T05:07:25.262Z,979.57
2023-05-10T05:08:25.220Z,979.55
2023-05-10T05:09:25.231Z,979.58
2023-05-10T05:10:25.204Z,979.52
2023-05-10T05:11:25.213Z,979.60
2023-05-10T05:12:25.177Z,979.53
2023-05-10T05:13:25.279Z,979.49
2023-05-10T05:14:25.187Z,979.54
2023-05-10T05:15:25.161Z,979.49
2023-05-10T05:16:25.169Z,979.48
2023-05-10T05:17:25.120Z,979.52
2023-05-10T05:18:25.105Z,979.52
2023-05-10T05:19:25.116Z,979.57
2023-05-10T05:20:25.101Z,979.57
2023-05-10T05:21:25.072Z,979.62
2023-05-10T05:22:25.059Z,979.62
2023-05-10T05:23:25.071Z,979.61
2023-05-10T05:24:25.051Z,979.57
2023-05-10T05:25:25.053Z,979.59
2023-05-10T05:26:25.042Z,979.60
2023-05-10T05:27:25.018Z,979.70
2023-05-10T05:28:25.025Z,979.60
2023-05-10T05:29:25.020Z,979.69
2023-05-10T05:30:24.983Z,979.70
2023-05-10T05:31:25.037Z,979.66
2023-05-10T05:32:25.019Z,979.71
2023-05-10T05:33:24.942Z,979.68
2023-05-10T05:34:24.926Z,979.68
2023-05-10T05:35:24.934Z,979.72
2023-05-10T05:36:24.924Z,979.70
2023-05-10T05:37:24.913Z,979.69
2023-05-10T05:38:24.895Z,979.72
2023-05-10T05:39:24.889Z,979.65
2023-05-10T05:40:24.866Z,979.72
2023-05-10T05:41:24.894Z,979.72
2023-05-10T05:42:24.858Z,979.73
2023-05-10T05:43:24.861Z,979.74
2023-05-10T05:44:24.811Z,979.75
2023-05-10T05:45:24.832Z,979.79
2023-05-10T05:46:24.852Z,979.79
2023-05-10T05:47:24.830Z,979.75
2023-05-10T05:48:24.804Z,979.75
2023-05-10T05:49:24.812Z,979.81
2023-05-10T05:50:24.779Z,979.76
2023-05-10T05:51:24.757Z,979.81
2023-05-10T05:52:24.729Z,979.78
2023-05-10T05:53:24.736Z,979.78
2023-05-10T05:54:24.731Z,979.85
2023-05-10T05:55:24.731Z,979.81
2023-05-10T05:56:24.690Z,979.80
2023-05-10T05:57:24.712Z,979.86
2023-05-10T05:58:24.691Z,979.81
2023-05-10T05:59:24.681Z,979.86
2023-05-10T06:00:24.655Z,979.90
2023-05-10T06:01:24.642Z,979.88
2023-05-10T06:02:24.688Z,979.90
2023-05-10T06:03:24.721Z,979.92
2023-05-10T06:04:24.640Z,979.91
2023-05-10T06:05:24.613Z,979.87
2023-05-10T06:06:24.578Z,979.90
2023-05-10T06:07:24.581Z,979.86
2023-05-10T06:08:24.572Z,979.89
2023-05-10T06:09:24.556Z,979.86
2023-05-10T06:10:24.539Z,979.86
2023-05-10T06:11:24.557Z,979.91
2023-05-10T06:12:24.532Z,979.90
2023-05-10T06:13:24.568Z,979.89
2023-05-10T06:14:24.503Z,979.90
2023-05-10T06:15:24.493Z,979.94
2023-05-10T06:16:24.509Z,979.91
2023-05-10T06:17:24.473Z,979.90
2023-05-10T06:18:24.486Z,979.98
2023-05-10T06:19:24.448Z,979.98
2023-05-10T06:20:24.449Z,979.99
2023-05-10T06:21:24.449Z,980.01
2023-05-10T06:22:24.428Z,980.00
2023-05-10T06:23:24.421Z,979.98
2023-05-10T06:24:24.398Z,980.03
2023-05-10T06:25:24.395Z,979.96
2023-05-10T06:26:24.382Z,980.05
2023-05-10T06:27:24.378Z,980.08
2023-05-10T06:28:24.377Z,980.02
2023-05-10T06:29:24.362Z,980.07
2023-05-10T06:30:24.343Z,980.03
2023-05-10T06:31:24.451Z,980.06
2023-05-10T06:32:24.382Z,980.08
2023-05-10T06:33:24.305Z,980.09
2023-05-10T06:34:24.308Z,980.09
2023-05-10T06:35:24.287Z,980.09
2023-05-10T06:36:24.267Z,980.10
2023-05-10T06:37:24.250Z,980.06
2023-05-10T06:38:24.248Z,980.11
2023-05-10T06:39:24.242Z,980.09
2023-05-10T06:40:24.230Z,980.11
2023-05-10T06:41:24.868Z,980.11
2023-05-10T06:42:24.186Z,980.13
2023-05-10T06:43:24.184Z,980.10
2023-05-10T06:44:24.196Z,980.09
2023-05-10T06:45:24.190Z,980.17
2023-05-10T06:46:24.182Z,980.16
2023-05-10T06:47:24.141Z,980.11
2023-05-10T06:48:24.139Z,980.06
2023-05-10T06:49:24.122Z,980.02
2023-05-10T06:50:24.141Z,980.09
2023-05-10T06:51:24.119Z,980.10
2023-05-10T06:52:24.095Z,980.05
2023-05-10T06:53:24.097Z,980.07
2023-05-10T06:54:24.072Z,980.16
2023-05-10T06:55:24.053Z,980.12
2023-05-10T06:56:24.053Z,980.15
2023-05-10T06:58:25.033Z,980.17
2023-05-10T06:59:24.096Z,980.21
2023-05-10T07:00:24.050Z,980.16
2023-05-10T07:01:24.322Z,980.26
2023-05-10T07:02:24.044Z,980.21
2023-05-10T07:03:24.046Z,980.23
2023-05-10T07:04:23.978Z,980.25
2023-05-10T07:05:24.010Z,980.20
2023-05-10T07:06:32.920Z,980.14
2023-05-10T07:07:24.932Z,980.14
2023-05-10T07:08:23.951Z,980.15
2023-05-10T07:09:23.903Z,980.17
2023-05-10T07:10:23.965Z,980.15
2023-05-10T07:11:23.896Z,980.20
2023-05-10T07:12:23.907Z,980.22
2023-05-10T07:13:24.066Z,980.16
2023-05-10T07:14:23.857Z,980.17
2023-05-10T07:15:23.886Z,980.26
2023-05-10T07:16:23.900Z,980.20
2023-05-10T07:17:23.863Z,980.24
2023-05-10T07:18:23.821Z,980.28
2023-05-10T07:19:23.802Z,980.29
2023-05-10T07:20:23.815Z,980.30
2023-05-10T07:21:23.816Z,980.21
2023-05-10T07:22:23.767Z,980.30
2023-05-10T07:23:23.779Z,980.33
2023-05-10T07:24:23.748Z,980.25
2023-05-10T07:25:23.741Z,980.33
2023-05-10T07:26:23.723Z,980.33
2023-05-10T07:27:23.738Z,980.28
2023-05-10T07:28:23.715Z,980.33
2023-05-10T07:29:23.708Z,980.24
2023-05-10T07:30:23.782Z,980.33
2023-05-10T07:31:23.693Z,980.36
2023-05-10T07:32:23.838Z,980.34
2023-05-10T07:33:23.706Z,980.29
2023-05-10T07:34:23.644Z,980.33
2023-05-10T07:35:23.614Z,980.35
2023-05-10T07:36:23.619Z,980.35
2023-05-10T07:37:23.597Z,980.38
2023-05-10T07:38:23.591Z,980.37
2023-05-10T07:39:27.643Z,980.33
2023-05-10T07:40:23.594Z,980.36
2023-05-10T07:41:23.568Z,980.42
2023-05-10T07:42:23.551Z,980.38
2023-05-10T07:43:23.543Z,980.46
2023-05-10T07:44:23.562Z,980.37
2023-05-10T07:45:23.511Z,980.46
2023-05-10T07:46:23.647Z,980.36
2023-05-10T07:47:23.532Z,980.36
2023-05-10T07:48:23.521Z,980.39
2023-05-10T07:49:23.457Z,980.38
2023-05-10T07:50:23.482Z,980.40
2023-05-10T07:51:23.451Z,980.40
2023-05-10T07:52:23.464Z,980.48
2023-05-10T07:53:23.433Z,980.43
2023-05-10T07:54:23.418Z,980.45
2023-05-10T07:55:23.415Z,980.43
2023-05-10T07:56:23.386Z,980.46
2023-05-10T07:57:23.389Z,980.56
2023-05-10T07:58:23.381Z,980.55
2023-05-10T07:59:23.355Z,980.47
2023-05-10T08:00:23.366Z,980.51
2023-05-10T08:01:23.352Z,980.50
2023-05-10T08:02:23.375Z,980.51
2023-05-10T08:03:23.406Z,980.48
2023-05-10T08:04:23.450Z,980.55
2023-05-10T08:05:23.311Z,980.46
2023-05-10T08:06:23.287Z,980.40
2023-05-10T08:07:23.265Z,980.51
2023-05-10T08:08:23.270Z,980.49
2023-05-10T08:09:23.268Z,980.47
2023-05-10T08:10:23.255Z,980.50
2023-05-10T08:11:23.227Z,980.51
2023-05-10T08:12:23.221Z,980.46
2023-05-10T08:13:23.208Z,980.67
2023-05-10T08:14:23.200Z,980.61
2023-05-10T08:15:23.186Z,980.48
2023-05-10T08:16:23.262Z,980.55
2023-05-10T08:17:24.739Z,980.52
2023-05-10T08:18:23.226Z,980.58
2023-05-10T08:19:23.159Z,980.55
2023-05-10T08:20:23.124Z,980.57
2023-05-10T08:21:23.150Z,980.57
2023-05-10T08:22:23.128Z,980.59
2023-05-10T08:23:23.104Z,980.51
2023-05-10T08:24:23.091Z,980.57
2023-05-10T08:25:23.077Z,980.55
2023-05-10T08:26:23.094Z,980.59
2023-05-10T08:27:23.063Z,980.50
2023-05-10T08:28:23.050Z,980.56
2023-05-10T08:29:23.020Z,980.57
2023-05-10T08:30:23.028Z,980.54
2023-05-10T08:31:23.080Z,980.57
2023-05-10T08:32:23.008Z,980.60
2023-05-10T08:33:22.981Z,980.60
2023-05-10T08:34:23.295Z,980.56
2023-05-10T08:35:22.972Z,980.55
2023-05-10T08:36:23.013Z,980.60
2023-05-10T08:37:22.947Z,980.62
2023-05-10T08:38:22.930Z,980.59
2023-05-10T08:39:29.900Z,980.69
2023-05-10T08:40:23.908Z,980.68
2023-05-10T08:41:22.945Z,980.60
2023-05-10T08:42:22.913Z,980.69
2023-05-10T08:43:22.872Z,980.64
2023-05-10T08:44:22.874Z,980.64
2023-05-10T08:45:22.893Z,980.69
2023-05-10T08:46:22.946Z,980.61
2023-05-10T08:47:22.888Z,980.68
2023-05-10T08:48:22.940Z,980.62
2023-05-10T08:49:22.832Z,980.62
2023-05-10T08:50:22.812Z,980.64
2023-05-10T08:51:22.902Z,980.62
2023-05-10T08:52:22.827Z,980.54
2023-05-10T08:53:22.789Z,980.53
2023-05-10T08:54:22.758Z,980.55
2023-05-10T08:55:22.746Z,980.58
2023-05-10T08:56:22.817Z,980.58
2023-05-10T08:57:22.736Z,980.61
2023-05-10T08:58:22.751Z,980.58
2023-05-10T08:59:22.698Z,980.63
2023-05-10T09:00:22.702Z,980.65
2023-05-10T09:01:22.836Z,980.64
2023-05-10T09:02:22.692Z,980.62
2023-05-10T09:03:22.788Z,980.66
2023-05-10T09:04:22.752Z,980.64
2023-05-10T09:05:22.684Z,980.63
2023-05-10T09:06:22.665Z,980.70
2023-05-10T09:07:22.644Z,980.70
2023-05-10T09:08:22.619Z,980.68
2023-05-10T09:09:22.619Z,980.71
2023-05-10T09:10:22.676Z,980.71
2023-05-10T09:11:22.592Z,980.73
2023-05-10T09:12:22.584Z,980.69
2023-05-10T09:13:22.579Z,980.70
2023-05-10T09:14:22.557Z,980.76
2023-05-10T09:15:22.559Z,980.76
2023-05-10T09:16:22.748Z,980.76
2023-05-10T09:17:22.653Z,980.84
2023-05-10T09:18:22.587Z,980.77
2023-05-10T09:19:22.506Z,980.79
2023-05-10T09:20:22.490Z,980.80
2023-05-10T09:21:22.512Z,980.86
2023-05-10T09:22:22.471Z,980.80
2023-05-10T09:23:22.442Z,980.83
2023-05-10T09:24:22.503Z,980.83
2023-05-10T09:25:22.432Z,980.85
2023-05-10T09:26:22.431Z,980.86
2023-05-10T09:27:22.533Z,980.88
2023-05-10T09:28:22.404Z,980.80
2023-05-10T09:29:22.414Z,980.83
2023-05-10T09:30:22.392Z,980.85
2023-05-10T09:31:22.480Z,980.86
2023-05-10T09:32:22.395Z,980.83
2023-05-10T09:33:22.336Z,980.94
2023-05-10T09:34:22.329Z,980.76
2023-05-10T09:35:22.302Z,980.84
2023-05-10T09:36:22.368Z,980.77
2023-05-10T09:37:22.294Z,980.83
2023-05-10T09:38:22.301Z,980.81
2023-05-10T09:39:22.263Z,980.83
2023-05-10T09:40:22.278Z,980.78
2023-05-10T09:41:22.258Z,980.79
2023-05-10T09:42:22.265Z,980.88
2023-05-10T09:43:22.241Z,980.74
2023-05-10T09:44:22.234Z,980.88
2023-05-10T09:45:22.208Z,980.83
2023-05-10T09:46:22.237Z,980.84
2023-05-10T09:47:22.189Z,980.85
2023-05-10T09:48:22.196Z,980.97
2023-05-10T09:49:22.154Z,980.86
2023-05-10T09:50:22.165Z,980.83
2023-05-10T09:51:22.133Z,980.87
2023-05-10T09:52:22.135Z,980.89
2023-05-10T09:53:22.140Z,980.87
2023-05-10T09:54:22.121Z,980.86
2023-05-10T09:55:22.086Z,980.94
2023-05-10T09:56:22.089Z,980.86
2023-05-10T09:57:22.075Z,980.98
2023-05-10T09:58:22.071Z,980.91
2023-05-10T09:59:22.066Z,980.89
2023-05-10T10:00:22.057Z,980.92
2023-05-10T10:01:22.080Z,980.93
2023-05-10T10:02:22.030Z,980.94
2023-05-10T10:03:22.028Z,980.98
2023-05-10T10:04:22.030Z,980.97
2023-05-10T10:05:22.025Z,980.93
2023-05-10T10:06:29.625Z,980.89
2023-05-10T10:07:22.961Z,980.90
2023-05-10T10:08:22.001Z,980.95
2023-05-10T10:09:21.951Z,980.96
2023-05-10T10:10:21.936Z,980.95
2023-05-10T10:11:21.932Z,980.96
2023-05-10T10:12:21.918Z,980.93
2023-05-10T10:13:21.929Z,980.93
2023-05-10T10:14:21.898Z,980.98
2023-05-10T10:15:22.239Z,980.96
2023-05-10T10:16:21.946Z,980.98
2023-05-10T10:17:21.872Z,980.80
2023-05-10T10:18:21.905Z,980.94
2023-05-10T10:19:21.845Z,980.92
2023-05-10T10:20:21.876Z,980.97
2023-05-10T10:21:21.802Z,980.86
2023-05-10T10:22:21.809Z,980.84
2023-05-10T10:23:21.797Z,980.81
2023-05-10T10:24:21.810Z,980.89
2023-05-10T10:25:21.780Z,980.88
2023-05-10T10:26:21.755Z,980.77
2023-05-10T10:27:21.747Z,980.78
2023-05-10T10:28:21.746Z,980.89
2023-05-10T10:29:21.740Z,980.83
2023-05-10T10:30:21.722Z,980.83
2023-05-10T10:31:21.751Z,980.88
2023-05-10T10:32:21.729Z,980.80
2023-05-10T10:34:22.666Z,980.86
2023-05-10T10:35:21.685Z,980.79
2023-05-10T10:36:21.664Z,980.87
2023-05-10T10:37:21.644Z,980.82
2023-05-10T10:38:21.637Z,980.89
2023-05-10T10:39:21.633Z,980.84
2023-05-10T10:40:21.635Z,980.87
2023-05-10T10:41:21.622Z,980.92
2023-05-10T10:42:21.599Z,980.96
2023-05-10T10:43:21.611Z,980.89
2023-05-10T10:44:21.566Z,981.06
2023-05-10T10:45:21.559Z,981.07
2023-05-10T10:46:21.575Z,981.01
2023-05-10T10:47:21.547Z,981.02
2023-05-10T10:48:21.538Z,980.96
2023-05-10T10:49:21.515Z,980.95
2023-05-10T10:50:21.504Z,980.97
2023-05-10T10:51:21.489Z,981.15
2023-05-10T10:52:21.499Z,981.01
2023-05-10T10:53:21.487Z,980.91
2023-05-10T10:54:21.450Z,980.93
2023-05-10T10:55:21.464Z,981.00
2023-05-10T10:56:21.435Z,981.02
2023-05-10T10:57:21.423Z,981.05
2023-05-10T10:58:21.405Z,980.93
2023-05-10T10:59:21.401Z,981.01
2023-05-10T11:00:21.422Z,981.01
2023-05-10T11:01:21.411Z,981.16
2023-05-10T11:02:21.373Z,980.88
2023-05-10T11:03:21.364Z,981.01
2023-05-10T11:04:21.425Z,981.05
2023-05-10T11:05:21.339Z,981.01
2023-05-10T11:06:21.346Z,980.98
2023-05-10T11:07:21.319Z,980.93
2023-05-10T11:08:21.328Z,980.98
2023-05-10T11:09:21.306Z,980.93
2023-05-10T11:10:21.304Z,981.10
2023-05-10T11:11:21.276Z,981.07
2023-05-10T11:12:21.253Z,981.03
2023-05-10T11:13:21.250Z,981.08
2023-05-10T11:14:21.271Z,981.06
2023-05-10T11:15:21.233Z,980.96
2023-05-10T11:16:21.395Z,980.99
2023-05-10T11:17:21.227Z,981.04
2023-05-10T11:18:21.296Z,981.01
2023-05-10T11:19:21.251Z,981.23
2023-05-10T11:20:21.181Z,981.01
2023-05-10T11:21:21.167Z,981.14
2023-05-10T11:22:21.160Z,981.04
2023-05-10T11:23:21.147Z,980.94
2023-05-10T11:24:21.145Z,980.97
2023-05-10T11:25:21.122Z,980.93
2023-05-10T11:26:21.117Z,981.09
2023-05-10T11:27:21.119Z,980.97
2023-05-10T11:28:21.089Z,980.95
2023-05-10T11:29:21.170Z,980.94
2023-05-10T11:30:21.205Z,980.90
2023-05-10T11:31:21.172Z,980.92
2023-05-10T11:32:21.062Z,980.89
2023-05-10T11:33:21.044Z,980.97
2023-05-10T11:34:21.024Z,980.91
2023-05-10T11:35:21.001Z,980.96
2023-05-10T11:36:21.005Z,980.90
2023-05-10T11:37:20.995Z,980.97
2023-05-10T11:38:21.003Z,980.90
2023-05-10T11:39:20.969Z,980.98
2023-05-10T11:40:20.972Z,980.92
2023-05-10T11:41:20.947Z,980.94
2023-05-10T11:42:20.967Z,980.91
2023-05-10T11:43:20.928Z,980.92
2023-05-10T11:44:20.927Z,981.01
2023-05-10T11:45:20.913Z,980.97
2023-05-10T11:46:20.978Z,980.95
2023-05-10T11:47:20.895Z,980.98
2023-05-10T11:48:20.883Z,981.05
2023-05-10T11:49:20.868Z,981.00
2023-05-10T11:50:20.842Z,981.07
2023-05-10T11:51:20.866Z,981.03
2023-05-10T11:52:20.839Z,981.05
2023-05-10T11:53:20.849Z,981.09
2023-05-10T11:54:20.844Z,981.10
2023-05-10T11:55:20.811Z,981.13
2023-05-10T11:56:20.789Z,981.06
2023-05-10T11:57:20.787Z,981.04
2023-05-10T11:58:20.781Z,981.09
2023-05-10T11:59:20.794Z,981.07
2023-05-10T12:00:20.805Z,981.11
2023-05-10T12:01:20.826Z,981.02
2023-05-10T12:02:20.854Z,981.09
2023-05-10T12:03:21.001Z,981.07
2023-05-10T12:04:20.929Z,981.11
2023-05-10T12:05:20.780Z,981.10
2023-05-10T12:06:20.812Z,981.12
2023-05-10T12:07:20.780Z,981.15
2023-05-10T12:08:20.747Z,981.23
2023-05-10T12:09:31.463Z,981.14
2023-05-10T12:10:21.632Z,981.18
2023-05-10T12:11:20.644Z,981.17
2023-05-10T12:12:20.638Z,981.26
2023-05-10T12:13:20.608Z,981.25
2023-05-10T12:14:20.586Z,981.23
2023-05-10T12:15:20.610Z,981.20
2023-05-10T12:16:20.671Z,981.18
2023-05-10T12:17:20.573Z,981.20
2023-05-10T12:18:20.594Z,981.31
2023-05-10T12:19:20.537Z,981.28
2023-05-10T12:20:20.751Z,981.22
2023-05-10T12:21:20.530Z,981.27
2023-05-10T12:22:20.510Z,981.29
2023-05-10T12:23:20.514Z,981.35
2023-05-10T12:24:20.498Z,981.31
2023-05-10T12:25:20.476Z,981.33
2023-05-10T12:26:20.453Z,981.33
2023-05-10T12:27:20.460Z,981.34
2023-05-10T12:28:20.437Z,981.35
2023-05-10T12:29:20.449Z,981.48
2023-05-10T12:30:21.143Z,981.45